Time;durP1;ratioP1;P1;durP2;ratioP2;P2;SDS_P1;SDS_P2;PMS_P1;PMS_P2;Temp;Humidity;BMP_temperature;BMP_pressure;BME280_temperature;BME280_humidity;BME280_pressure;Samples;Min_cycle;Max_cycle;Signal;HPM_P1;HPM_P2
2023/07/13 00:00:30;;;;;;;8.88;2.90;;;16.00;99.90;;;;;;4864960;29;20512;-87
2023/07/13 00:02:56;;;;;;;8.07;2.70;;;16.00;99.90;;;;;;4898342;29;20048;-86
2023/07/13 00:05:23;;;;;;;6.72;2.85;;;16.00;99.90;;;;;;4864239;29;20040;-86
2023/07/13 00:07:50;;;;;;;9.38;2.58;;;16.00;99.90;;;;;;4883855;29;20040;-87
2023/07/13 00:10:15;;;;;;;5.15;3.25;;;16.00;99.90;;;;;;4854187;29;20041;-87
2023/07/13 00:12:41;;;;;;;6.82;3.03;;;16.00;99.90;;;;;;4893656;29;20428;-87
2023/07/13 00:15:12;;;;;;;7.43;2.83;;;16.10;99.90;;;;;;4872981;29;20770;-87
2023/07/13 00:17:39;;;;;;;5.22;2.65;;;15.90;99.90;;;;;;4857012;29;20576;-86
2023/07/13 00:20:07;;;;;;;7.25;3.15;;;15.90;99.90;;;;;;4861665;29;20040;-87
2023/07/13 00:22:32;;;;;;;4.18;2.70;;;15.90;99.90;;;;;;4875819;29;20543;-86
2023/07/13 00:24:58;;;;;;;6.57;3.45;;;15.80;99.90;;;;;;4853790;29;20111;-86
2023/07/13 00:27:26;;;;;;;8.30;3.38;;;15.90;99.90;;;;;;4859916;29;20507;-87
2023/07/13 00:29:52;;;;;;;7.90;3.17;;;15.80;99.90;;;;;;4867288;29;20444;-86
2023/07/13 00:32:19;;;;;;;8.88;2.95;;;15.80;99.90;;;;;;4874131;29;20076;-87
2023/07/13 00:34:44;;;;;;;8.93;2.72;;;15.90;99.90;;;;;;4891275;29;20429;-86
2023/07/13 00:37:11;;;;;;;7.10;3.35;;;15.80;99.90;;;;;;4880058;29;20029;-87
2023/07/13 00:39:36;;;;;;;5.38;3.35;;;15.80;99.90;;;;;;4877715;29;20446;-86
2023/07/13 00:42:03;;;;;;;4.97;2.88;;;15.70;99.90;;;;;;4881167;29;20066;-86
2023/07/13 00:44:29;;;;;;;6.15;3.00;;;15.80;99.90;;;;;;4858647;29;20040;-87
2023/07/13 00:46:55;;;;;;;6.88;2.67;;;15.70;99.90;;;;;;4892843;29;20047;-88
2023/07/13 00:49:24;;;;;;;6.70;2.92;;;15.70;99.90;;;;;;4851976;29;20041;-89
2023/07/13 00:51:55;;;;;;;7.10;2.70;;;15.70;99.90;;;;;;4870992;29;20136;-89
2023/07/13 00:54:29;;;;;;;7.50;2.53;;;15.70;99.90;;;;;;4867444;29;20068;-88
2023/07/13 00:56:58;;;;;;;7.38;2.70;;;15.80;99.90;;;;;;4871895;29;20119;-88
2023/07/13 00:59:25;;;;;;;5.28;2.50;;;15.80;99.90;;;;;;4885633;29;20475;-89
2023/07/13 01:01:51;;;;;;;6.97;2.83;;;15.80;99.90;;;;;;4864290;29;20076;-88
2023/07/13 01:04:17;;;;;;;6.25;2.50;;;15.80;99.90;;;;;;4883176;29;20029;-88
2023/07/13 01:06:44;;;;;;;9.27;2.72;;;15.90;99.90;;;;;;4878794;29;20041;-89
2023/07/13 01:09:11;;;;;;;8.32;2.55;;;15.90;99.90;;;;;;4875007;29;20037;-89
2023/07/13 01:11:36;;;;;;;7.25;2.60;;;15.90;99.90;;;;;;4870366;29;20489;-89
2023/07/13 01:14:03;;;;;;;6.10;2.75;;;15.90;99.90;;;;;;4853267;29;20037;-89
2023/07/13 01:16:32;;;;;;;11.75;3.22;;;15.90;99.90;;;;;;4873927;29;20052;-88
2023/07/13 01:18:59;;;;;;;9.25;3.13;;;16.00;99.90;;;;;;4879094;29;20076;-88
2023/07/13 01:21:28;;;;;;;8.70;2.97;;;16.00;99.90;;;;;;4871278;29;20045;-88
2023/07/13 01:23:53;;;;;;;10.40;3.15;;;16.00;99.90;;;;;;4868464;29;20040;-89
2023/07/13 01:26:19;;;;;;;6.35;2.65;;;16.00;99.90;;;;;;4869820;29;20040;-89
2023/07/13 01:28:44;;;;;;;9.45;3.35;;;16.00;99.90;;;;;;4872890;29;20054;-89
2023/07/13 01:31:11;;;;;;;8.05;3.00;;;16.00;99.90;;;;;;4876907;29;20521;-89
2023/07/13 01:33:39;;;;;;;7.50;2.90;;;16.00;99.90;;;;;;4867919;29;20045;-89
2023/07/13 01:36:09;;;;;;;10.85;2.80;;;16.00;99.90;;;;;;4856411;29;20051;-89
2023/07/13 01:38:35;;;;;;;7.43;2.95;;;16.00;99.90;;;;;;4881724;29;20051;-89
2023/07/13 01:41:02;;;;;;;9.32;3.47;;;16.00;99.90;;;;;;4871478;29;20049;-89
2023/07/13 01:43:27;;;;;;;13.00;2.92;;;16.00;99.90;;;;;;4865548;29;20055;-88
2023/07/13 01:45:53;;;;;;;11.55;2.92;;;16.00;99.90;;;;;;4891563;29;20488;-89
2023/07/13 01:48:22;;;;;;;9.13;3.13;;;16.00;99.90;;;;;;4890443;29;20484;-89
2023/07/13 01:50:48;;;;;;;8.02;3.15;;;16.00;99.90;;;;;;4890588;29;20391;-88
2023/07/13 01:53:14;;;;;;;7.47;2.78;;;16.00;99.90;;;;;;4886035;29;20088;-89
2023/07/13 01:55:39;;;;;;;9.90;3.55;;;16.00;99.90;;;;;;4884484;29;20044;-89
2023/07/13 01:58:06;;;;;;;8.45;2.83;;;16.10;99.90;;;;;;4886346;29;20448;-89
2023/07/13 02:00:32;;;;;;;8.40;3.00;;;16.10;99.90;;;;;;4868575;29;20493;-89
2023/07/13 02:02:58;;;;;;;6.20;3.15;;;16.10;99.90;;;;;;4877869;29;20040;-89
2023/07/13 02:05:24;;;;;;;8.98;2.97;;;16.10;99.90;;;;;;4870380;29;20037;-89
2023/07/13 02:07:49;;;;;;;9.38;3.35;;;16.10;99.90;;;;;;4882675;29;20443;-89
2023/07/13 02:10:15;;;;;;;6.35;2.88;;;16.10;99.90;;;;;;4894366;29;20127;-89
2023/07/13 02:12:42;;;;;;;7.38;3.03;;;16.10;99.90;;;;;;4873871;29;20456;-89
2023/07/13 02:15:08;;;;;;;10.85;3.28;;;16.10;99.90;;;;;;4886211;29;20040;-89
2023/07/13 02:17:35;;;;;;;6.07;2.65;;;16.10;99.90;;;;;;4868673;29;20051;-88
2023/07/13 02:20:03;;;;;;;7.78;2.63;;;16.10;99.90;;;;;;4897376;29;20040;-89
2023/07/13 02:22:28;;;;;;;8.05;2.92;;;16.00;99.90;;;;;;4890782;29;20044;-89
2023/07/13 02:24:54;;;;;;;9.82;3.78;;;16.00;99.90;;;;;;4889960;29;20039;-89
2023/07/13 02:27:20;;;;;;;10.02;3.20;;;16.00;99.90;;;;;;4887722;29;20120;-88
2023/07/13 02:29:45;;;;;;;14.20;3.38;;;16.00;99.90;;;;;;4874469;29;20657;-89
2023/07/13 02:32:11;;;;;;;8.95;3.15;;;16.00;99.90;;;;;;4869105;29;20097;-89
2023/07/13 02:34:37;;;;;;;9.98;2.92;;;16.00;99.90;;;;;;4868623;29;20046;-89
2023/07/13 02:37:03;;;;;;;9.45;3.25;;;16.00;99.90;;;;;;4865940;29;20048;-89
2023/07/13 02:39:28;;;;;;;9.98;3.17;;;16.00;99.90;;;;;;4890042;29;20123;-89
2023/07/13 02:41:54;;;;;;;11.02;3.42;;;16.10;99.90;;;;;;4881237;29;20128;-89
2023/07/13 02:44:19;;;;;;;9.25;3.45;;;16.00;99.90;;;;;;4870942;29;20092;-89
2023/07/13 02:46:45;;;;;;;8.90;3.08;;;16.00;99.90;;;;;;4888560;29;20122;-89
2023/07/13 02:49:10;;;;;;;12.30;3.47;;;16.00;99.90;;;;;;4867981;29;20511;-88
2023/07/13 02:51:36;;;;;;;9.70;2.88;;;16.10;99.90;;;;;;4888773;29;20099;-90
2023/07/13 02:54:03;;;;;;;10.70;3.40;;;16.00;99.90;;;;;;4871382;29;20041;-89
2023/07/13 02:56:31;;;;;;;7.85;3.53;;;16.00;99.90;;;;;;4871466;29;20075;-89
2023/07/13 02:58:57;;;;;;;9.05;3.72;;;16.00;99.90;;;;;;4888343;29;20100;-89
2023/07/13 03:01:23;;;;;;;10.98;3.50;;;16.00;99.90;;;;;;4868926;29;20087;-88
2023/07/13 03:03:50;;;;;;;8.68;3.72;;;15.90;99.90;;;;;;4887150;29;21314;-89
2023/07/13 03:06:18;;;;;;;8.70;3.13;;;16.00;99.90;;;;;;4869778;29;20044;-89
2023/07/13 03:08:44;;;;;;;11.75;3.80;;;16.10;99.90;;;;;;4886766;29;20109;-89
2023/07/13 03:11:17;;;;;;;9.93;3.22;;;16.00;99.90;;;;;;4864679;29;20385;-89
2023/07/13 03:13:43;;;;;;;8.45;3.20;;;16.00;99.90;;;;;;4883556;29;20036;-88
2023/07/13 03:16:10;;;;;;;10.95;3.70;;;16.00;99.90;;;;;;4884910;29;20073;-89
2023/07/13 03:18:36;;;;;;;10.18;3.50;;;16.00;99.90;;;;;;4899002;29;20519;-89
2023/07/13 03:21:03;;;;;;;9.00;3.80;;;16.00;99.90;;;;;;4870706;29;20400;-88
2023/07/13 03:23:29;;;;;;;8.40;3.35;;;16.00;99.90;;;;;;4895306;29;20032;-88
2023/07/13 03:26:05;;;;;;;9.77;3.85;;;16.00;99.90;;;;;;4864468;29;20045;-89
2023/07/13 03:28:31;;;;;;;9.48;3.38;;;16.00;99.90;;;;;;4889711;29;20519;-89
2023/07/13 03:31:01;;;;;;;14.35;3.40;;;15.90;99.90;;;;;;4876174;29;20047;-89
2023/07/13 03:33:27;;;;;;;9.38;3.40;;;16.00;99.90;;;;;;4883093;29;20457;-89
2023/07/13 03:35:53;;;;;;;13.65;3.17;;;15.90;99.90;;;;;;4883560;29;20104;-88
2023/07/13 03:38:19;;;;;;;9.15;3.58;;;15.90;99.90;;;;;;4878976;29;20066;-89
2023/07/13 03:40:45;;;;;;;7.82;3.53;;;15.90;99.90;;;;;;4877087;29;20032;-88
2023/07/13 03:43:10;;;;;;;8.80;3.35;;;15.90;99.90;;;;;;4848004;29;1079862;-89
2023/07/13 03:45:38;;;;;;;9.55;3.50;;;15.90;99.90;;;;;;4873915;29;20066;-88
2023/07/13 03:48:04;;;;;;;9.23;3.40;;;15.90;99.90;;;;;;4895084;29;20059;-89
2023/07/13 03:50:30;;;;;;;9.80;3.70;;;15.90;99.90;;;;;;4880994;29;20040;-89
2023/07/13 03:52:58;;;;;;;9.10;3.50;;;15.90;99.90;;;;;;4888196;29;20040;-89
2023/07/13 03:55:24;;;;;;;7.65;3.20;;;15.90;99.90;;;;;;4870542;29;20464;-88
2023/07/13 03:57:58;;;;;;;9.43;3.90;;;15.90;99.90;;;;;;4870475;29;20146;-88
2023/07/13 04:00:24;;;;;;;8.20;3.53;;;15.80;99.90;;;;;;4885020;29;20519;-89
2023/07/13 04:02:50;;;;;;;6.68;3.60;;;15.80;99.90;;;;;;4887780;29;20050;-89
2023/07/13 04:05:18;;;;;;;10.98;3.83;;;15.80;99.90;;;;;;4866945;29;20429;-89
2023/07/13 04:07:44;;;;;;;10.10;2.92;;;15.80;99.90;;;;;;4882917;29;20041;-89
2023/07/13 04:10:10;;;;;;;9.65;3.70;;;15.80;99.90;;;;;;4886778;29;20483;-89
2023/07/13 04:12:35;;;;;;;12.57;4.38;;;15.80;99.90;;;;;;4883915;29;20040;-89
2023/07/13 04:15:01;;;;;;;9.75;3.20;;;15.80;99.90;;;;;;4886890;29;20032;-89
2023/07/13 04:17:27;;;;;;;10.77;3.45;;;15.80;99.90;;;;;;4868640;29;20097;-89
2023/07/13 04:19:52;;;;;;;9.85;3.95;;;15.90;99.90;;;;;;4869183;29;20040;-89
2023/07/13 04:22:18;;;;;;;6.80;3.72;;;15.80;99.90;;;;;;4868334;29;20052;-89
2023/07/13 04:24:47;;;;;;;7.95;3.78;;;15.90;99.90;;;;;;4872257;29;20064;-90
2023/07/13 04:30:17;;;;;;;7.85;4.15;;;15.80;99.90;;;;;;4877612;29;20520;-90
2023/07/13 04:36:01;;;;;;;12.13;3.92;;;15.80;99.90;;;;;;4888220;29;20036;-89
2023/07/13 04:38:29;;;;;;;10.38;3.60;;;15.80;99.90;;;;;;4889238;29;20493;-89
2023/07/13 04:41:15;;;;;;;13.35;4.88;;;15.70;99.90;;;;;;4880486;29;20080;-88
2023/07/13 04:43:43;;;;;;;7.60;3.78;;;15.70;99.90;;;;;;4881825;29;20064;-88
2023/07/13 04:46:12;;;;;;;9.30;4.30;;;15.60;99.90;;;;;;4868745;29;20037;-88
2023/07/13 04:48:38;;;;;;;11.57;4.20;;;15.60;99.90;;;;;;4866303;29;20116;-89
2023/07/13 04:51:04;;;;;;;10.98;4.15;;;15.60;99.90;;;;;;4882915;29;20136;-89
2023/07/13 04:53:30;;;;;;;9.88;4.10;;;15.60;99.90;;;;;;4888396;29;20452;-89
2023/07/13 04:55:56;;;;;;;13.68;4.40;;;15.50;99.90;;;;;;4870798;29;20040;-89
2023/07/13 04:58:22;;;;;;;6.13;4.10;;;15.50;99.90;;;;;;4856608;29;20033;-89
2023/07/13 05:00:48;;;;;;;8.57;4.38;;;15.50;99.90;;;;;;4854668;29;20048;-89
2023/07/13 05:03:14;;;;;;;7.55;4.07;;;15.60;99.90;;;;;;4893926;29;20037;-89
2023/07/13 05:05:39;;;;;;;10.00;5.07;;;15.60;99.90;;;;;;4901927;29;20036;-88
2023/07/13 05:08:27;;;;;;;11.60;4.70;;;15.60;99.90;;;;;;4878262;29;20025;-88
2023/07/13 05:11:32;;;;;;;8.32;4.43;;;15.70;99.90;;;;;;4901547;29;20059;-88
2023/07/13 05:13:57;;;;;;;10.77;4.10;;;15.60;99.90;;;;;;4873567;29;20048;-88
2023/07/13 05:16:23;;;;;;;9.45;4.53;;;15.70;99.90;;;;;;4869109;29;20064;-89
2023/07/13 05:18:49;;;;;;;12.60;4.25;;;15.70;99.90;;;;;;4881811;29;20049;-88
2023/07/13 05:21:14;;;;;;;10.48;4.28;;;15.80;99.90;;;;;;4895031;29;20456;-88
2023/07/13 05:23:41;;;;;;;9.05;4.72;;;15.80;99.90;;;;;;4877961;29;20132;-88
2023/07/13 05:26:11;;;;;;;10.27;4.40;;;15.80;99.90;;;;;;4876421;29;20037;-88
2023/07/13 05:28:37;;;;;;;10.43;4.43;;;16.00;99.90;;;;;;4870396;29;20100;-89
2023/07/13 05:31:04;;;;;;;13.05;4.55;;;15.90;99.90;;;;;;4878840;29;20123;-89
2023/07/13 05:33:29;;;;;;;13.60;4.97;;;16.00;99.90;;;;;;4874290;29;20048;-89
2023/07/13 05:35:56;;;;;;;12.43;4.38;;;16.10;99.90;;;;;;4873965;29;20144;-89
2023/07/13 05:38:21;;;;;;;14.02;4.97;;;16.20;99.90;;;;;;4886544;29;20040;-89
2023/07/13 05:40:52;;;;;;;10.23;4.43;;;16.20;99.90;;;;;;4870577;29;20050;-89
2023/07/13 05:43:18;;;;;;;13.27;4.50;;;16.30;99.90;;;;;;4880490;29;20028;-89
2023/07/13 05:45:43;;;;;;;11.02;4.40;;;16.30;99.90;;;;;;4867996;29;20084;-89
2023/07/13 05:48:09;;;;;;;8.75;4.40;;;16.40;99.90;;;;;;4892697;29;20032;-89
2023/07/13 05:50:44;;;;;;;9.50;4.25;;;16.50;99.90;;;;;;4880790;29;20044;-89
2023/07/13 05:53:09;;;;;;;10.55;4.93;;;16.70;99.90;;;;;;4878239;29;20044;-89
2023/07/13 05:55:35;;;;;;;10.05;4.63;;;16.60;99.90;;;;;;4897897;29;20047;-89
2023/07/13 05:58:01;;;;;;;6.75;4.40;;;16.70;99.90;;;;;;4876529;29;20075;-89
2023/07/13 06:00:27;;;;;;;11.63;4.22;;;16.80;99.90;;;;;;4886714;29;20069;-85
2023/07/13 06:02:53;;;;;;;9.45;4.22;;;16.90;99.90;;;;;;4878272;29;20033;-85
2023/07/13 06:05:18;;;;;;;9.27;4.20;;;17.00;99.90;;;;;;4892034;29;20051;-85
2023/07/13 06:07:44;;;;;;;12.27;4.90;;;17.00;99.90;;;;;;4888935;29;20104;-84
2023/07/13 06:10:10;;;;;;;10.18;4.00;;;17.10;99.90;;;;;;4895470;29;20033;-85
2023/07/13 06:12:36;;;;;;;9.82;4.32;;;17.20;99.90;;;;;;4883055;29;20040;-84
2023/07/13 06:15:02;;;;;;;10.90;4.80;;;17.20;99.90;;;;;;4884498;29;20040;-84
2023/07/13 06:17:28;;;;;;;9.88;4.10;;;17.30;99.90;;;;;;4887915;29;20069;-84
2023/07/13 06:19:53;;;;;;;13.55;3.85;;;17.20;99.90;;;;;;4913626;29;20048;-85
2023/07/13 06:22:19;;;;;;;9.25;4.10;;;17.40;99.90;;;;;;4866085;29;20049;-85
2023/07/13 06:24:45;;;;;;;8.75;3.85;;;17.50;99.90;;;;;;4875685;29;20049;-84
2023/07/13 06:27:10;;;;;;;7.47;3.92;;;17.60;99.90;;;;;;4892168;29;20036;-85
2023/07/13 06:29:36;;;;;;;10.07;4.50;;;17.70;99.90;;;;;;4873690;29;20131;-89
2023/07/13 06:32:01;;;;;;;9.10;4.05;;;17.80;99.90;;;;;;4856508;29;20040;-89
2023/07/13 06:34:27;;;;;;;8.65;3.65;;;17.80;99.90;;;;;;4869226;29;20032;-89
2023/07/13 06:36:53;;;;;;;8.30;4.00;;;17.90;99.90;;;;;;4889519;29;20041;-89
2023/07/13 06:39:18;;;;;;;9.90;4.55;;;17.90;99.90;;;;;;4873235;29;20045;-90
2023/07/13 06:41:44;;;;;;;8.30;3.97;;;18.00;99.90;;;;;;4876254;29;20041;-89
2023/07/13 06:44:10;;;;;;;9.45;4.00;;;18.00;99.90;;;;;;4880924;29;20496;-90
2023/07/13 06:46:35;;;;;;;11.48;3.88;;;18.20;99.90;;;;;;4909737;23;20041;-88
2023/07/13 06:49:01;;;;;;;8.95;3.72;;;18.30;99.90;;;;;;4904442;29;20089;-87
2023/07/13 06:51:27;;;;;;;10.82;4.15;;;18.50;99.90;;;;;;4907473;29;20033;-87
2023/07/13 06:53:52;;;;;;;9.85;3.92;;;18.70;99.90;;;;;;4894540;29;20454;-89
2023/07/13 06:56:18;;;;;;;8.07;3.80;;;18.80;99.90;;;;;;4899053;29;20037;-88
2023/07/13 06:58:44;;;;;;;10.98;4.07;;;18.90;99.90;;;;;;4855923;29;20408;-88
2023/07/13 07:01:09;;;;;;;9.05;3.88;;;18.90;99.90;;;;;;4887552;29;20061;-87
2023/07/13 07:03:35;;;;;;;9.65;3.85;;;19.10;99.90;;;;;;4864008;29;20052;-88
2023/07/13 07:06:06;;;;;;;8.63;3.85;;;19.10;99.90;;;;;;4874992;29;20121;-89
2023/07/13 07:08:31;;;;;;;10.20;3.90;;;19.10;99.90;;;;;;4857488;29;20041;-88
2023/07/13 07:10:57;;;;;;;6.25;3.60;;;19.10;99.90;;;;;;4876036;29;20132;-89
2023/07/13 07:13:23;;;;;;;9.40;3.65;;;19.30;99.90;;;;;;4861006;29;20053;-88
2023/07/13 07:15:53;;;;;;;7.22;3.80;;;19.30;99.90;;;;;;4858063;29;20045;-88
2023/07/13 07:18:18;;;;;;;10.25;4.18;;;19.30;99.90;;;;;;4866420;29;20045;-89
2023/07/13 07:20:44;;;;;;;9.38;4.18;;;19.40;99.90;;;;;;4877891;29;20398;-88
2023/07/13 07:23:09;;;;;;;9.05;3.70;;;19.30;99.90;;;;;;4861925;29;20072;-87
2023/07/13 07:25:37;;;;;;;10.70;4.03;;;19.30;99.90;;;;;;4892708;29;20557;-88
2023/07/13 07:28:03;;;;;;;7.47;3.97;;;19.30;99.90;;;;;;4868518;29;20119;-88
2023/07/13 07:30:29;;;;;;;9.52;3.65;;;19.20;99.90;;;;;;4877765;29;20124;-89
2023/07/13 07:32:57;;;;;;;9.27;3.65;;;19.10;99.90;;;;;;4854704;29;20189;-89
2023/07/13 07:35:23;;;;;;;9.63;4.05;;;19.10;99.90;;;;;;4873931;29;20053;-89
2023/07/13 07:37:49;;;;;;;7.68;3.63;;;19.00;99.90;;;;;;4897956;29;20569;-89
2023/07/13 07:40:15;;;;;;;8.80;3.33;;;19.00;99.90;;;;;;4900859;29;20041;-88
2023/07/13 07:42:40;;;;;;;9.10;3.60;;;19.10;99.90;;;;;;4877487;29;20044;-89
2023/07/13 07:45:06;;;;;;;6.47;3.70;;;19.10;99.90;;;;;;4862318;29;20132;-89
2023/07/13 07:47:32;;;;;;;7.53;4.15;;;19.20;99.90;;;;;;4861676;29;20116;-89
2023/07/13 07:49:57;;;;;;;12.35;4.10;;;19.20;99.90;;;;;;4881652;29;20209;-89
2023/07/13 07:52:23;;;;;;;11.18;4.57;;;19.20;99.90;;;;;;4894159;29;20045;-87
2023/07/13 07:54:49;;;;;;;12.32;5.15;;;19.20;99.90;;;;;;4849357;29;20682;-88
2023/07/13 07:57:14;;;;;;;8.60;4.47;;;19.30;99.90;;;;;;4877293;29;20036;-87
2023/07/13 07:59:40;;;;;;;11.02;4.50;;;19.30;99.90;;;;;;4864364;29;20069;-88
2023/07/13 08:02:06;;;;;;;12.63;4.70;;;19.40;99.90;;;;;;4886547;29;20116;-88
2023/07/13 08:04:32;;;;;;;13.65;5.03;;;19.40;99.90;;;;;;4892734;29;20041;-88
2023/07/13 08:06:58;;;;;;;12.10;5.18;;;19.60;99.90;;;;;;4870153;29;20381;-88
2023/07/13 08:09:24;;;;;;;13.77;5.35;;;19.60;99.90;;;;;;4861915;29;20105;-88
2023/07/13 08:11:51;;;;;;;12.10;5.28;;;19.60;99.90;;;;;;4892909;29;20093;-88
2023/07/13 08:14:16;;;;;;;14.45;5.38;;;19.80;99.90;;;;;;4861587;29;20044;-89
2023/07/13 08:16:42;;;;;;;9.93;4.93;;;19.80;99.90;;;;;;4860750;29;20142;-88
2023/07/13 08:19:08;;;;;;;11.77;4.93;;;20.00;99.90;;;;;;4867368;29;20069;-88
2023/07/13 08:21:34;;;;;;;12.32;4.85;;;20.10;99.90;;;;;;4847216;29;20076;-88
2023/07/13 08:23:59;;;;;;;12.07;4.85;;;20.20;99.90;;;;;;4885767;29;20049;-88
2023/07/13 08:26:25;;;;;;;8.85;5.07;;;20.20;99.90;;;;;;4877363;29;20048;-89
2023/07/13 08:28:50;;;;;;;11.68;5.28;;;20.10;99.90;;;;;;4859601;29;20037;-89
2023/07/13 08:31:16;;;;;;;13.80;5.35;;;20.10;99.90;;;;;;4877146;29;20052;-88
2023/07/13 08:33:42;;;;;;;10.10;5.28;;;20.10;99.90;;;;;;4889470;29;20041;-87
2023/07/13 08:36:07;;;;;;;8.98;4.90;;;20.20;99.90;;;;;;4848999;29;20409;-88
2023/07/13 08:38:33;;;;;;;10.45;5.20;;;20.40;99.90;;;;;;4881966;29;20120;-89
2023/07/13 08:40:59;;;;;;;10.82;5.35;;;20.60;99.90;;;;;;4885443;29;20041;-88
2023/07/13 08:43:30;;;;;;;8.93;5.50;;;20.90;99.90;;;;;;4889953;29;20042;-88
2023/07/13 08:46:08;;;;;;;10.93;5.43;;;20.80;99.90;;;;;;4848689;29;20512;-89
2023/07/13 08:48:57;;;;;;;28.10;7.93;;;21.00;99.90;;;;;;4879480;29;20046;-89
2023/07/13 08:51:32;;;;;;;11.73;6.43;;;21.30;99.90;;;;;;4857031;29;20048;-88
2023/07/13 08:54:09;;;;;;;12.30;6.72;;;21.20;99.90;;;;;;4879849;29;20125;-89
2023/07/13 08:56:34;;;;;;;10.77;6.93;;;20.80;99.90;;;;;;4890070;29;20049;-89
2023/07/13 08:59:09;;;;;;;17.92;8.13;;;20.40;99.90;;;;;;4850236;29;20053;-88
2023/07/13 09:01:54;;;;;;;10.95;7.45;;;20.10;99.90;;;;;;4893459;29;20049;-89
2023/07/13 09:04:23;;;;;;;13.38;7.72;;;20.00;99.90;;;;;;4887413;29;20045;-89
2023/07/13 09:06:59;;;;;;;13.93;8.05;;;19.90;99.90;;;;;;4888478;29;20437;-88
2023/07/13 09:09:52;;;;;;;15.65;4.85;;;19.70;99.90;;;;;;4855428;29;20071;-87
2023/07/13 09:12:40;;;;;;;20.20;5.97;;;19.20;99.90;;;;;;4867106;29;20386;-86
2023/07/13 09:15:22;;;;;;;9.32;5.18;;;18.20;99.90;;;;;;4860506;29;20045;-86
2023/07/13 09:17:52;;;;;;;13.13;6.15;;;17.50;99.90;;;;;;4853996;29;20516;-85
2023/07/13 09:20:44;;;;;;;21.65;10.32;;;17.10;99.90;;;;;;4887057;29;20037;-86
2023/07/13 09:23:17;;;;;;;10.30;7.45;;;16.80;99.90;;;;;;4851466;29;20044;-87
2023/07/13 09:25:55;;;;;;;;;;;16.50;99.90;;;;;;4886683;29;20116;-88
2023/07/13 09:28:33;;;;;;;11.20;6.18;;;16.30;99.90;;;;;;4859526;29;19942;-88
2023/07/13 09:31:05;;;;;;;5.70;3.40;;;16.10;99.90;;;;;;4857956;29;20097;-88
2023/07/13 09:33:55;;;;;;;4.88;3.17;;;15.90;99.90;;;;;;4853418;29;20052;-88
2023/07/13 09:36:31;;;;;;;2.60;2.40;;;15.60;99.90;;;;;;4853841;29;20109;-89
2023/07/13 09:39:25;;;;;;;2.42;1.80;;;15.30;99.90;;;;;;4875346;29;20133;-89
2023/07/13 09:42:41;;;;;;;;;;;;;;;;;;;;;
2023/07/13 09:45:52;;;;;;;2.65;1.42;;;14.80;99.90;;;;;;4832585;29;20046;-89
2023/07/13 09:48:53;;;;;;;3.00;1.65;;;14.70;99.90;;;;;;4876507;29;20051;-88
2023/07/13 09:51:33;;;;;;;1.88;1.75;;;14.70;99.90;;;;;;4860467;29;20053;-88
2023/07/13 09:54:39;;;;;;;2.00;1.80;;;14.80;99.90;;;;;;4905725;29;20057;-87
2023/07/13 09:57:22;;;;;;;3.10;2.00;;;15.00;99.90;;;;;;4887933;23;20406;-87
2023/07/13 09:59:50;;;;;;;2.97;1.80;;;15.40;99.90;;;;;;4916841;29;20451;-87
2023/07/13 10:02:36;;;;;;;3.58;2.15;;;15.60;99.90;;;;;;4896543;29;20214;-89
2023/07/13 10:05:12;;;;;;;3.72;1.75;;;15.80;99.90;;;;;;4901949;29;20582;-87
2023/07/13 10:07:44;;;;;;;2.47;2.03;;;15.90;99.90;;;;;;4917984;29;20439;-87
2023/07/13 10:10:23;;;;;;;4.30;2.40;;;16.00;99.90;;;;;;4918167;29;20035;-87
2023/07/13 10:13:04;;;;;;;3.05;2.40;;;16.20;99.90;;;;;;4920273;29;20885;-87
2023/07/13 10:15:44;;;;;;;2.70;2.50;;;16.50;99.90;;;;;;4897568;29;20048;-87
2023/07/13 10:18:12;;;;;;;4.50;2.72;;;16.60;99.90;;;;;;4902485;29;20058;-87
2023/07/13 10:20:41;;;;;;;3.65;2.70;;;16.80;99.90;;;;;;4908338;29;20411;-87
2023/07/13 10:23:24;;;;;;;3.80;2.35;;;16.90;99.90;;;;;;4918663;29;20123;-88
2023/07/13 10:25:53;;;;;;;3.13;2.75;;;16.80;99.90;;;;;;4907856;29;20068;-88
2023/07/13 10:28:39;;;;;;;3.58;2.97;;;17.00;99.90;;;;;;4903527;29;20581;-87
2023/07/13 10:31:21;;;;;;;4.50;3.45;;;16.90;99.90;;;;;;4903654;29;20303;-87
2023/07/13 10:34:05;;;;;;;5.35;4.85;;;17.20;99.90;;;;;;4901284;29;20130;-87
2023/07/13 10:36:38;;;;;;;5.28;4.78;;;17.90;99.90;;;;;;4917546;29;20064;-87
2023/07/13 10:39:36;;;;;;;5.22;4.65;;;18.60;99.90;;;;;;4901486;29;20403;-87
2023/07/13 10:42:16;;;;;;;7.18;4.97;;;19.00;99.90;;;;;;4910802;29;20067;-87
2023/07/13 10:44:42;;;;;;;6.82;4.53;;;19.50;99.90;;;;;;4917011;29;20075;-88
2023/07/13 10:47:17;;;;;;;7.05;4.85;;;19.90;99.90;;;;;;4901342;29;20494;-88
2023/07/13 10:49:56;;;;;;;6.50;5.90;;;20.40;99.90;;;;;;4901786;29;20036;-87
2023/07/13 10:52:54;;;;;;;6.05;5.40;;;20.30;99.90;;;;;;4916709;29;20036;-87
2023/07/13 10:55:54;;;;;;;7.97;7.13;;;20.20;99.90;;;;;;4898917;29;20040;-87
2023/07/13 10:59:10;;;;;;;6.38;5.70;;;20.40;99.90;;;;;;4918720;29;20151;-87
2023/07/13 11:02:00;;;;;;;9.15;6.45;;;20.40;99.90;;;;;;4904656;29;20047;-87
2023/07/13 11:04:29;;;;;;;7.32;5.05;;;20.50;99.90;;;;;;4900959;29;20490;-87
2023/07/13 11:07:09;;;;;;;6.28;5.78;;;20.40;99.90;;;;;;4906641;29;20046;-87
2023/07/13 11:09:40;;;;;;;7.50;5.55;;;20.60;99.90;;;;;;4901153;29;20391;-87
2023/07/13 11:12:25;;;;;;;7.75;5.95;;;20.60;99.90;;;;;;4916639;29;20051;-86
2023/07/13 11:14:54;;;;;;;9.00;6.00;;;20.40;99.90;;;;;;4914377;29;20585;-87
2023/07/13 11:17:49;;;;;;;9.32;5.80;;;20.10;99.90;;;;;;4915002;29;20091;-87
2023/07/13 11:20:14;;;;;;;9.20;6.15;;;19.80;99.90;;;;;;4916856;29;20056;-86
2023/07/13 11:22:48;;;;;;;5.97;5.40;;;19.40;99.90;;;;;;4920544;29;20108;-86
2023/07/13 11:25:20;;;;;;;4.43;3.78;;;18.90;99.90;;;;;;4918632;29;20039;-87
2023/07/13 11:27:51;;;;;;;3.95;3.47;;;18.40;99.90;;;;;;4919206;29;20078;-88
2023/07/13 11:30:36;;;;;;;4.03;3.80;;;18.10;99.90;;;;;;4900981;29;20044;-89
2023/07/13 11:33:43;;;;;;;3.90;2.88;;;18.50;99.90;;;;;;4909007;29;20057;-88
2023/07/13 11:36:16;;;;;;;3.58;2.78;;;18.50;99.90;;;;;;4854024;29;20045;-87
2023/07/13 11:38:43;;;;;;;;;;;19.20;99.90;;;;;;4914588;29;20498;-88
2023/07/13 11:41:18;;;;;;;6.85;3.13;;;19.90;99.90;;;;;;4900399;29;19969;-88
2023/07/13 11:43:45;;;;;;;3.17;2.35;;;20.40;99.90;;;;;;4900688;29;20043;-88
2023/07/13 11:46:20;;;;;;;3.58;2.55;;;20.50;99.90;;;;;;4916026;29;20036;-88
2023/07/13 11:48:47;;;;;;;4.30;2.90;;;20.40;99.90;;;;;;4900512;29;20047;-87
2023/07/13 11:51:22;;;;;;;2.45;2.33;;;20.60;99.90;;;;;;4899455;29;20035;-87
2023/07/13 11:53:51;;;;;;;5.05;2.83;;;21.10;99.90;;;;;;4900835;29;20099;-87
2023/07/13 11:56:17;;;;;;;4.70;3.28;;;21.70;99.90;;;;;;4897950;29;20118;-87
2023/07/13 11:58:44;;;;;;;4.68;3.53;;;22.10;99.90;;;;;;4900459;29;20062;-88
2023/07/13 12:01:24;;;;;;;3.22;2.92;;;22.60;99.90;;;;;;4899831;29;20313;-87
2023/07/13 12:03:51;;;;;;;5.07;3.60;;;23.00;99.90;;;;;;4900465;29;20038;-88
2023/07/13 12:06:32;;;;;;;3.85;3.45;;;23.10;99.90;;;;;;4899701;29;20039;-88
2023/07/13 12:09:00;;;;;;;3.72;3.35;;;23.30;99.90;;;;;;4899948;29;20047;-88
2023/07/13 12:11:26;;;;;;;4.38;3.70;;;23.80;99.90;;;;;;4900086;29;20047;-88
2023/07/13 12:13:52;;;;;;;5.15;3.70;;;24.30;99.90;;;;;;4900242;29;20078;-88
2023/07/13 12:16:30;;;;;;;4.82;4.00;;;24.50;99.90;;;;;;4910472;29;20059;-87
2023/07/13 12:18:57;;;;;;;6.82;4.53;;;24.50;99.90;;;;;;4915794;29;20483;-87
2023/07/13 12:21:32;;;;;;;5.00;3.85;;;24.70;99.90;;;;;;4899693;29;20047;-88
2023/07/13 12:23:57;;;;;;;6.60;4.72;;;24.30;99.90;;;;;;4927188;29;20032;-87
2023/07/13 12:26:23;;;;;;;5.85;4.43;;;24.00;99.90;;;;;;4899998;29;20054;-87
2023/07/13 12:29:08;;;;;;;7.43;4.35;;;24.10;99.90;;;;;;4915464;29;20099;-87
2023/07/13 12:31:44;;;;;;;7.95;3.72;;;23.80;99.90;;;;;;4910217;29;20091;-88
2023/07/13 12:34:12;;;;;;;3.60;3.17;;;23.60;99.90;;;;;;4898370;29;20088;-88
2023/07/13 12:36:54;;;;;;;5.07;3.25;;;23.10;99.90;;;;;;4900447;29;20047;-88
2023/07/13 12:39:37;;;;;;;5.90;3.45;;;22.70;99.90;;;;;;4914864;29;20073;-87
2023/07/13 12:42:28;;;;;;;7.00;3.30;;;22.30;99.90;;;;;;4908432;29;20051;-87
2023/07/13 12:45:01;;;;;;;6.97;4.13;;;22.00;99.90;;;;;;4900129;29;20061;-87
2023/07/13 12:47:27;;;;;;;5.53;3.15;;;21.80;99.90;;;;;;4897653;29;20040;-87
2023/07/13 12:49:56;;;;;;;4.55;3.30;;;21.60;99.90;;;;;;4915743;29;20532;-88
2023/07/13 12:52:29;;;;;;;6.38;3.47;;;21.40;99.90;;;;;;4914952;29;20048;-88
2023/07/13 12:55:09;;;;;;;5.13;2.53;;;21.30;99.90;;;;;;4913112;29;20413;-88
2023/07/13 12:57:49;;;;;;;4.47;2.65;;;21.20;99.90;;;;;;4899402;29;20047;-87
2023/07/13 13:00:24;;;;;;;5.90;2.72;;;21.10;99.90;;;;;;4915633;29;20043;-87
2023/07/13 13:02:52;;;;;;;6.32;3.08;;;21.20;99.90;;;;;;4898846;29;20047;-88
2023/07/13 13:05:17;;;;;;;2.50;2.20;;;22.10;99.90;;;;;;4899487;29;20110;-88
2023/07/13 13:07:46;;;;;;;4.80;2.22;;;23.00;99.90;;;;;;4915877;29;20442;-88